sensor_id;sensor_type;location;lat;lon;timestamp;P1;durP1;ratioP1;P2;durP2;ratioP2
15393;SDS011;7795;47.986;11.868;2023-05-29T00:00:13;3.33;;;2.90;;
15393;SDS011;7795;47.986;11.868;2023-05-29T00:02:42;3.83;;;2.93;;
15393;SDS011;7795;47.986;11.868;2023-05-29T00:05:09;4.73;;;3.47;;
15393;SDS011;7795;47.986;11.868;2023-05-29T00:07:37;3.50;;;3.20;;
15393;SDS011;7795;47.986;11.868;2023-05-29T00:10:04;4.20;;;2.73;;
15393;SDS011;7795;47.986;11.868;2023-05-29T00:12:30;4.23;;;3.57;;
15393;SDS011;7795;47.986;11.868;2023-05-29T00:14:56;5.33;;;2.97;;
15393;SDS011;7795;47.986;11.868;2023-05-29T00:17:22;5.20;;;3.20;;
15393;SDS011;7795;47.986;11.868;2023-05-29T00:19:48;6.67;;;3.43;;
15393;SDS011;7795;47.986;11.868;2023-05-29T00:22:14;3.90;;;3.03;;
15393;SDS011;7795;47.986;11.868;2023-05-29T00:24:40;3.83;;;3.00;;
15393;SDS011;7795;47.986;11.868;2023-05-29T00:27:07;4.47;;;3.10;;
15393;SDS011;7795;47.986;11.868;2023-05-29T00:29:33;3.53;;;2.70;;
15393;SDS011;7795;47.986;11.868;2023-05-29T00:31:59;4.00;;;2.80;;
15393;SDS011;7795;47.986;11.868;2023-05-29T00:34:25;3.50;;;2.80;;
15393;SDS011;7795;47.986;11.868;2023-05-29T00:36:51;4.00;;;3.20;;
15393;SDS011;7795;47.986;11.868;2023-05-29T00:39:17;3.13;;;2.60;;
15393;SDS011;7795;47.986;11.868;2023-05-29T00:41:43;4.10;;;3.03;;
15393;SDS011;7795;47.986;11.868;2023-05-29T00:44:10;4.60;;;3.10;;
15393;SDS011;7795;47.986;11.868;2023-05-29T00:46:35;4.53;;;2.80;;
15393;SDS011;7795;47.986;11.868;2023-05-29T00:49:01;3.83;;;2.73;;
15393;SDS011;7795;47.986;11.868;2023-05-29T00:51:29;4.17;;;2.97;;
15393;SDS011;7795;47.986;11.868;2023-05-29T00:53:56;3.10;;;2.53;;
15393;SDS011;7795;47.986;11.868;2023-05-29T00:56:23;3.90;;;2.73;;
15393;SDS011;7795;47.986;11.868;2023-05-29T00:58:51;2.43;;;2.20;;
15393;SDS011;7795;47.986;11.868;2023-05-29T01:01:19;3.80;;;3.00;;
15393;SDS011;7795;47.986;11.868;2023-05-29T01:03:46;3.47;;;2.87;;
15393;SDS011;7795;47.986;11.868;2023-05-29T01:06:13;3.10;;;2.50;;
15393;SDS011;7795;47.986;11.868;2023-05-29T01:08:39;4.20;;;2.70;;
15393;SDS011;7795;47.986;11.868;2023-05-29T01:11:07;3.10;;;2.70;;
15393;SDS011;7795;47.986;11.868;2023-05-29T01:13:38;4.73;;;2.93;;
15393;SDS011;7795;47.986;11.868;2023-05-29T01:16:11;3.77;;;2.60;;
15393;SDS011;7795;47.986;11.868;2023-05-29T01:18:44;3.80;;;2.60;;
15393;SDS011;7795;47.986;11.868;2023-05-29T01:21:18;3.63;;;2.90;;
15393;SDS011;7795;47.986;11.868;2023-05-29T01:23:53;2.93;;;2.73;;
15393;SDS011;7795;47.986;11.868;2023-05-29T01:29:24;3.83;;;2.70;;
15393;SDS011;7795;47.986;11.868;2023-05-29T01:31:52;4.00;;;2.70;;
15393;SDS011;7795;47.986;11.868;2023-05-29T01:34:20;3.73;;;3.10;;
15393;SDS011;7795;47.986;11.868;2023-05-29T01:36:46;3.47;;;2.73;;
15393;SDS011;7795;47.986;11.868;2023-05-29T01:39:12;4.23;;;2.87;;
15393;SDS011;7795;47.986;11.868;2023-05-29T01:41:38;3.00;;;2.70;;
15393;SDS011;7795;47.986;11.868;2023-05-29T01:44:06;3.90;;;2.63;;
15393;SDS011;7795;47.986;11.868;2023-05-29T01:46:34;3.50;;;2.93;;
15393;SDS011;7795;47.986;11.868;2023-05-29T01:49:01;3.80;;;2.97;;
15393;SDS011;7795;47.986;11.868;2023-05-29T01:51:27;4.07;;;3.10;;
15393;SDS011;7795;47.986;11.868;2023-05-29T01:53:53;4.30;;;2.80;;
15393;SDS011;7795;47.986;11.868;2023-05-29T01:56:19;3.30;;;2.80;;
15393;SDS011;7795;47.986;11.868;2023-05-29T01:58:46;4.67;;;3.23;;
15393;SDS011;7795;47.986;11.868;2023-05-29T02:01:14;4.27;;;2.83;;
15393;SDS011;7795;47.986;11.868;2023-05-29T02:03:40;3.53;;;2.63;;
15393;SDS011;7795;47.986;11.868;2023-05-29T02:06:05;3.97;;;2.80;;
15393;SDS011;7795;47.986;11.868;2023-05-29T02:08:31;4.23;;;3.27;;
15393;SDS011;7795;47.986;11.868;2023-05-29T02:10:57;3.47;;;2.40;;
15393;SDS011;7795;47.986;11.868;2023-05-29T02:13:23;3.30;;;2.90;;
15393;SDS011;7795;47.986;11.868;2023-05-29T02:15:49;3.67;;;2.73;;
15393;SDS011;7795;47.986;11.868;2023-05-29T02:18:16;2.93;;;2.63;;
15393;SDS011;7795;47.986;11.868;2023-05-29T02:20:45;3.20;;;2.90;;
15393;SDS011;7795;47.986;11.868;2023-05-29T02:23:11;4.13;;;2.97;;
15393;SDS011;7795;47.986;11.868;2023-05-29T02:25:37;3.37;;;2.67;;
15393;SDS011;7795;47.986;11.868;2023-05-29T02:28:03;4.03;;;2.70;;
15393;SDS011;7795;47.986;11.868;2023-05-29T02:30:30;3.93;;;2.87;;
15393;SDS011;7795;47.986;11.868;2023-05-29T02:32:55;4.03;;;2.93;;
15393;SDS011;7795;47.986;11.868;2023-05-29T02:35:23;3.00;;;2.70;;
15393;SDS011;7795;47.986;11.868;2023-05-29T02:37:48;4.40;;;2.47;;
15393;SDS011;7795;47.986;11.868;2023-05-29T02:40:14;4.90;;;2.67;;
15393;SDS011;7795;47.986;11.868;2023-05-29T02:42:40;3.53;;;2.93;;
15393;SDS011;7795;47.986;11.868;2023-05-29T02:45:06;4.90;;;2.67;;
15393;SDS011;7795;47.986;11.868;2023-05-29T02:47:33;2.97;;;2.43;;
15393;SDS011;7795;47.986;11.868;2023-05-29T02:49:59;3.20;;;2.47;;
15393;SDS011;7795;47.986;11.868;2023-05-29T02:52:26;3.33;;;2.83;;
15393;SDS011;7795;47.986;11.868;2023-05-29T02:54:52;3.90;;;2.67;;
15393;SDS011;7795;47.986;11.868;2023-05-29T02:57:19;4.47;;;2.97;;
15393;SDS011;7795;47.986;11.868;2023-05-29T02:59:45;5.57;;;2.90;;
15393;SDS011;7795;47.986;11.868;2023-05-29T03:02:11;3.83;;;3.20;;
15393;SDS011;7795;47.986;11.868;2023-05-29T03:04:37;3.80;;;3.00;;
15393;SDS011;7795;47.986;11.868;2023-05-29T03:07:03;3.20;;;2.33;;
15393;SDS011;7795;47.986;11.868;2023-05-29T03:09:30;2.70;;;2.40;;
15393;SDS011;7795;47.986;11.868;2023-05-29T03:11:56;3.57;;;2.87;;
15393;SDS011;7795;47.986;11.868;2023-05-29T03:14:21;3.77;;;2.53;;
15393;SDS011;7795;47.986;11.868;2023-05-29T03:16:48;5.13;;;3.00;;
15393;SDS011;7795;47.986;11.868;2023-05-29T03:19:14;3.20;;;2.53;;
15393;SDS011;7795;47.986;11.868;2023-05-29T03:21:40;3.20;;;3.00;;
15393;SDS011;7795;47.986;11.868;2023-05-29T03:24:06;3.97;;;3.03;;
15393;SDS011;7795;47.986;11.868;2023-05-29T03:26:33;2.90;;;2.60;;
15393;SDS011;7795;47.986;11.868;2023-05-29T03:28:59;3.60;;;2.50;;
15393;SDS011;7795;47.986;11.868;2023-05-29T03:31:25;3.87;;;2.73;;
15393;SDS011;7795;47.986;11.868;2023-05-29T03:33:50;2.87;;;2.37;;
15393;SDS011;7795;47.986;11.868;2023-05-29T03:36:16;5.63;;;3.03;;
15393;SDS011;7795;47.986;11.868;2023-05-29T03:38:42;2.77;;;2.53;;
15393;SDS011;7795;47.986;11.868;2023-05-29T03:41:08;3.33;;;2.87;;
15393;SDS011;7795;47.986;11.868;2023-05-29T03:43:36;5.23;;;3.20;;
15393;SDS011;7795;47.986;11.868;2023-05-29T03:46:02;3.57;;;3.17;;
15393;SDS011;7795;47.986;11.868;2023-05-29T03:48:28;3.50;;;2.90;;
15393;SDS011;7795;47.986;11.868;2023-05-29T03:50:53;6.10;;;3.70;;
15393;SDS011;7795;47.986;11.868;2023-05-29T03:53:19;4.40;;;3.07;;
15393;SDS011;7795;47.986;11.868;2023-05-29T03:55:45;4.10;;;2.53;;
15393;SDS011;7795;47.986;11.868;2023-05-29T03:58:11;3.70;;;3.17;;
15393;SDS011;7795;47.986;11.868;2023-05-29T04:00:38;4.67;;;2.70;;
15393;SDS011;7795;47.986;11.868;2023-05-29T04:03:04;3.10;;;2.70;;
15393;SDS011;7795;47.986;11.868;2023-05-29T04:05:31;4.07;;;2.77;;
15393;SDS011;7795;47.986;11.868;2023-05-29T04:07:57;3.43;;;2.63;;
15393;SDS011;7795;47.986;11.868;2023-05-29T04:10:23;3.07;;;2.73;;
15393;SDS011;7795;47.986;11.868;2023-05-29T04:12:49;3.80;;;2.77;;
15393;SDS011;7795;47.986;11.868;2023-05-29T04:15:15;3.37;;;2.50;;
15393;SDS011;7795;47.986;11.868;2023-05-29T04:17:43;7.27;;;3.80;;
15393;SDS011;7795;47.986;11.868;2023-05-29T04:20:09;4.13;;;2.73;;
15393;SDS011;7795;47.986;11.868;2023-05-29T04:22:35;3.93;;;2.40;;
15393;SDS011;7795;47.986;11.868;2023-05-29T04:25:02;3.50;;;3.07;;
15393;SDS011;7795;47.986;11.868;2023-05-29T04:27:30;4.53;;;3.63;;
15393;SDS011;7795;47.986;11.868;2023-05-29T04:30:03;3.87;;;2.80;;
15393;SDS011;7795;47.986;11.868;2023-05-29T04:32:29;5.97;;;3.60;;
15393;SDS011;7795;47.986;11.868;2023-05-29T04:34:57;5.27;;;3.27;;
15393;SDS011;7795;47.986;11.868;2023-05-29T04:37:26;5.23;;;3.33;;
15393;SDS011;7795;47.986;11.868;2023-05-29T04:39:54;5.30;;;3.73;;
15393;SDS011;7795;47.986;11.868;2023-05-29T04:42:20;3.80;;;2.90;;
15393;SDS011;7795;47.986;11.868;2023-05-29T04:44:45;6.20;;;3.60;;
15393;SDS011;7795;47.986;11.868;2023-05-29T04:47:11;5.87;;;3.30;;
15393;SDS011;7795;47.986;11.868;2023-05-29T04:49:38;3.77;;;2.87;;
15393;SDS011;7795;47.986;11.868;2023-05-29T04:52:07;4.07;;;3.37;;
15393;SDS011;7795;47.986;11.868;2023-05-29T04:54:32;4.60;;;3.27;;
15393;SDS011;7795;47.986;11.868;2023-05-29T04:57:00;3.97;;;2.97;;
15393;SDS011;7795;47.986;11.868;2023-05-29T04:59:26;4.37;;;3.27;;
15393;SDS011;7795;47.986;11.868;2023-05-29T05:01:52;3.53;;;3.17;;
15393;SDS011;7795;47.986;11.868;2023-05-29T05:04:17;4.80;;;3.40;;
15393;SDS011;7795;47.986;11.868;2023-05-29T05:06:43;4.93;;;3.90;;
15393;SDS011;7795;47.986;11.868;2023-05-29T05:09:10;5.90;;;3.70;;
15393;SDS011;7795;47.986;11.868;2023-05-29T05:11:37;5.07;;;3.63;;
15393;SDS011;7795;47.986;11.868;2023-05-29T05:14:03;5.87;;;4.80;;
15393;SDS011;7795;47.986;11.868;2023-05-29T05:16:29;5.97;;;3.90;;
15393;SDS011;7795;47.986;11.868;2023-05-29T05:18:54;4.80;;;4.03;;
15393;SDS011;7795;47.986;11.868;2023-05-29T05:21:20;4.37;;;3.00;;
15393;SDS011;7795;47.986;11.868;2023-05-29T05:23:46;5.90;;;3.37;;
15393;SDS011;7795;47.986;11.868;2023-05-29T05:26:13;4.47;;;3.70;;
15393;SDS011;7795;47.986;11.868;2023-05-29T05:28:39;5.33;;;3.40;;
15393;SDS011;7795;47.986;11.868;2023-05-29T05:31:04;4.00;;;2.97;;
15393;SDS011;7795;47.986;11.868;2023-05-29T05:33:31;3.33;;;3.03;;
15393;SDS011;7795;47.986;11.868;2023-05-29T05:35:57;5.60;;;3.07;;
15393;SDS011;7795;47.986;11.868;2023-05-29T05:38:22;4.33;;;3.27;;
15393;SDS011;7795;47.986;11.868;2023-05-29T05:40:48;5.50;;;4.20;;
15393;SDS011;7795;47.986;11.868;2023-05-29T05:43:15;4.27;;;3.60;;
15393;SDS011;7795;47.986;11.868;2023-05-29T05:45:41;4.20;;;3.30;;
15393;SDS011;7795;47.986;11.868;2023-05-29T05:48:07;4.40;;;3.47;;
15393;SDS011;7795;47.986;11.868;2023-05-29T05:50:33;4.10;;;3.07;;
15393;SDS011;7795;47.986;11.868;2023-05-29T05:53:00;6.27;;;4.30;;
15393;SDS011;7795;47.986;11.868;2023-05-29T05:55:25;4.07;;;3.30;;
15393;SDS011;7795;47.986;11.868;2023-05-29T05:57:52;4.23;;;3.40;;
15393;SDS011;7795;47.986;11.868;2023-05-29T06:00:20;4.47;;;3.63;;
15393;SDS011;7795;47.986;11.868;2023-05-29T06:02:47;4.20;;;3.53;;
15393;SDS011;7795;47.986;11.868;2023-05-29T06:05:13;4.93;;;3.67;;
15393;SDS011;7795;47.986;11.868;2023-05-29T06:07:39;6.67;;;4.10;;
15393;SDS011;7795;47.986;11.868;2023-05-29T06:10:05;4.60;;;4.07;;
15393;SDS011;7795;47.986;11.868;2023-05-29T06:12:32;5.87;;;3.97;;
15393;SDS011;7795;47.986;11.868;2023-05-29T06:14:59;5.20;;;4.00;;
15393;SDS011;7795;47.986;11.868;2023-05-29T06:17:26;6.03;;;4.20;;
15393;SDS011;7795;47.986;11.868;2023-05-29T06:19:52;5.77;;;3.83;;
15393;SDS011;7795;47.986;11.868;2023-05-29T06:22:18;5.57;;;4.00;;
15393;SDS011;7795;47.986;11.868;2023-05-29T06:24:44;6.27;;;4.30;;
15393;SDS011;7795;47.986;11.868;2023-05-29T06:27:10;6.13;;;4.77;;
15393;SDS011;7795;47.986;11.868;2023-05-29T06:29:35;6.30;;;4.23;;
15393;SDS011;7795;47.986;11.868;2023-05-29T06:32:01;6.40;;;4.77;;
15393;SDS011;7795;47.986;11.868;2023-05-29T06:34:28;5.73;;;4.73;;
15393;SDS011;7795;47.986;11.868;2023-05-29T06:36:54;6.53;;;4.47;;
15393;SDS011;7795;47.986;11.868;2023-05-29T06:39:20;5.40;;;3.80;;
15393;SDS011;7795;47.986;11.868;2023-05-29T06:41:46;8.67;;;6.20;;
15393;SDS011;7795;47.986;11.868;2023-05-29T06:44:12;7.13;;;4.30;;
15393;SDS011;7795;47.986;11.868;2023-05-29T06:46:38;5.93;;;4.43;;
15393;SDS011;7795;47.986;11.868;2023-05-29T06:49:03;5.20;;;4.30;;
15393;SDS011;7795;47.986;11.868;2023-05-29T06:51:32;5.47;;;4.03;;
15393;SDS011;7795;47.986;11.868;2023-05-29T06:53:58;7.53;;;4.10;;
15393;SDS011;7795;47.986;11.868;2023-05-29T06:56:24;6.70;;;4.30;;
15393;SDS011;7795;47.986;11.868;2023-05-29T06:58:51;4.90;;;4.17;;
15393;SDS011;7795;47.986;11.868;2023-05-29T07:01:16;5.97;;;4.40;;
15393;SDS011;7795;47.986;11.868;2023-05-29T07:03:42;6.10;;;4.27;;
15393;SDS011;7795;47.986;11.868;2023-05-29T07:06:08;5.37;;;3.97;;
15393;SDS011;7795;47.986;11.868;2023-05-29T07:08:36;5.93;;;4.73;;
15393;SDS011;7795;47.986;11.868;2023-05-29T07:11:02;8.90;;;4.80;;
15393;SDS011;7795;47.986;11.868;2023-05-29T07:13:27;6.30;;;4.57;;
15393;SDS011;7795;47.986;11.868;2023-05-29T07:15:53;5.77;;;4.33;;
15393;SDS011;7795;47.986;11.868;2023-05-29T07:18:19;6.93;;;4.63;;
15393;SDS011;7795;47.986;11.868;2023-05-29T07:20:45;5.17;;;4.50;;
15393;SDS011;7795;47.986;11.868;2023-05-29T07:23:11;5.80;;;4.30;;
15393;SDS011;7795;47.986;11.868;2023-05-29T07:25:38;5.57;;;4.23;;
15393;SDS011;7795;47.986;11.868;2023-05-29T07:28:03;7.50;;;4.43;;
15393;SDS011;7795;47.986;11.868;2023-05-29T07:30:29;4.53;;;3.50;;
15393;SDS011;7795;47.986;11.868;2023-05-29T07:32:55;7.20;;;4.13;;
15393;SDS011;7795;47.986;11.868;2023-05-29T07:35:21;5.70;;;4.27;;
15393;SDS011;7795;47.986;11.868;2023-05-29T07:37:47;5.30;;;3.93;;
15393;SDS011;7795;47.986;11.868;2023-05-29T07:40:14;8.17;;;5.00;;
15393;SDS011;7795;47.986;11.868;2023-05-29T07:42:42;8.03;;;4.83;;
15393;SDS011;7795;47.986;11.868;2023-05-29T07:45:08;6.60;;;4.13;;
15393;SDS011;7795;47.986;11.868;2023-05-29T07:47:34;6.47;;;4.50;;
15393;SDS011;7795;47.986;11.868;2023-05-29T07:49:59;5.03;;;4.10;;
15393;SDS011;7795;47.986;11.868;2023-05-29T07:52:25;6.47;;;4.30;;
15393;SDS011;7795;47.986;11.868;2023-05-29T07:54:52;6.23;;;4.40;;
15393;SDS011;7795;47.986;11.868;2023-05-29T07:57:17;5.07;;;4.23;;
15393;SDS011;7795;47.986;11.868;2023-05-29T07:59:44;4.73;;;4.17;;
15393;SDS011;7795;47.986;11.868;2023-05-29T08:02:14;4.73;;;4.23;;
15393;SDS011;7795;47.986;11.868;2023-05-29T08:04:40;6.30;;;4.40;;
15393;SDS011;7795;47.986;11.868;2023-05-29T08:07:06;6.43;;;4.27;;
15393;SDS011;7795;47.986;11.868;2023-05-29T08:09:31;5.73;;;3.90;;
15393;SDS011;7795;47.986;11.868;2023-05-29T08:11:57;6.63;;;4.13;;
15393;SDS011;7795;47.986;11.868;2023-05-29T08:14:25;5.03;;;4.20;;
15393;SDS011;7795;47.986;11.868;2023-05-29T08:16:52;6.73;;;4.10;;
15393;SDS011;7795;47.986;11.868;2023-05-29T08:19:18;6.37;;;4.23;;
15393;SDS011;7795;47.986;11.868;2023-05-29T08:21:44;5.50;;;4.40;;
15393;SDS011;7795;47.986;11.868;2023-05-29T08:24:09;5.77;;;4.30;;
15393;SDS011;7795;47.986;11.868;2023-05-29T08:26:35;7.60;;;4.00;;
15393;SDS011;7795;47.986;11.868;2023-05-29T08:29:01;5.83;;;3.97;;
15393;SDS011;7795;47.986;11.868;2023-05-29T08:31:27;5.17;;;4.10;;
15393;SDS011;7795;47.986;11.868;2023-05-29T08:33:55;5.40;;;4.17;;
15393;SDS011;7795;47.986;11.868;2023-05-29T08:36:21;4.50;;;3.60;;
15393;SDS011;7795;47.986;11.868;2023-05-29T08:38:47;5.80;;;4.07;;
15393;SDS011;7795;47.986;11.868;2023-05-29T08:41:15;6.37;;;4.53;;
15393;SDS011;7795;47.986;11.868;2023-05-29T08:43:45;8.10;;;4.30;;
15393;SDS011;7795;47.986;11.868;2023-05-29T08:46:13;5.93;;;4.03;;
15393;SDS011;7795;47.986;11.868;2023-05-29T08:48:43;6.17;;;3.93;;
15393;SDS011;7795;47.986;11.868;2023-05-29T08:51:19;5.40;;;4.27;;
15393;SDS011;7795;47.986;11.868;2023-05-29T08:53:46;5.43;;;4.07;;
15393;SDS011;7795;47.986;11.868;2023-05-29T08:56:13;5.80;;;3.97;;
15393;SDS011;7795;47.986;11.868;2023-05-29T08:58:38;5.60;;;3.83;;
15393;SDS011;7795;47.986;11.868;2023-05-29T09:01:04;5.27;;;3.70;;
15393;SDS011;7795;47.986;11.868;2023-05-29T09:03:31;5.00;;;4.40;;
15393;SDS011;7795;47.986;11.868;2023-05-29T09:05:57;5.07;;;4.10;;
15393;SDS011;7795;47.986;11.868;2023-05-29T09:08:26;8.40;;;3.67;;
15393;SDS011;7795;47.986;11.868;2023-05-29T09:10:53;5.10;;;4.27;;
15393;SDS011;7795;47.986;11.868;2023-05-29T09:13:20;5.90;;;4.43;;
15393;SDS011;7795;47.986;11.868;2023-05-29T09:15:46;5.97;;;4.40;;
15393;SDS011;7795;47.986;11.868;2023-05-29T09:18:11;5.83;;;4.00;;
15393;SDS011;7795;47.986;11.868;2023-05-29T09:20:37;4.57;;;4.07;;
15393;SDS011;7795;47.986;11.868;2023-05-29T09:23:04;5.57;;;4.20;;
15393;SDS011;7795;47.986;11.868;2023-05-29T09:25:32;6.97;;;4.60;;
15393;SDS011;7795;47.986;11.868;2023-05-29T09:28:01;4.63;;;3.93;;
15393;SDS011;7795;47.986;11.868;2023-05-29T09:30:34;5.90;;;4.67;;
15393;SDS011;7795;47.986;11.868;2023-05-29T09:33:01;5.47;;;4.03;;
15393;SDS011;7795;47.986;11.868;2023-05-29T09:35:32;3.70;;;3.23;;
15393;SDS011;7795;47.986;11.868;2023-05-29T09:37:59;4.80;;;3.90;;
15393;SDS011;7795;47.986;11.868;2023-05-29T09:40:24;6.40;;;4.20;;
15393;SDS011;7795;47.986;11.868;2023-05-29T09:42:52;7.47;;;4.37;;
15393;SDS011;7795;47.986;11.868;2023-05-29T09:45:17;5.00;;;4.17;;
15393;SDS011;7795;47.986;11.868;2023-05-29T09:47:44;6.03;;;4.20;;
15393;SDS011;7795;47.986;11.868;2023-05-29T09:50:17;5.67;;;4.13;;
15393;SDS011;7795;47.986;11.868;2023-05-29T09:52:45;4.53;;;3.57;;
15393;SDS011;7795;47.986;11.868;2023-05-29T09:55:11;5.63;;;3.80;;
15393;SDS011;7795;47.986;11.868;2023-05-29T09:57:40;5.77;;;3.60;;
15393;SDS011;7795;47.986;11.868;2023-05-29T10:00:09;6.90;;;4.30;;
15393;SDS011;7795;47.986;11.868;2023-05-29T10:02:38;6.07;;;4.27;;
15393;SDS011;7795;47.986;11.868;2023-05-29T10:05:05;4.97;;;3.50;;
15393;SDS011;7795;47.986;11.868;2023-05-29T10:07:32;3.80;;;3.13;;
15393;SDS011;7795;47.986;11.868;2023-05-29T10:10:02;4.00;;;3.50;;
15393;SDS011;7795;47.986;11.868;2023-05-29T10:12:30;4.23;;;3.30;;
15393;SDS011;7795;47.986;11.868;2023-05-29T10:14:59;4.73;;;3.77;;
15393;SDS011;7795;47.986;11.868;2023-05-29T10:17:31;5.20;;;3.80;;
15393;SDS011;7795;47.986;11.868;2023-05-29T10:19:59;5.13;;;3.83;;
15393;SDS011;7795;47.986;11.868;2023-05-29T10:22:27;5.73;;;3.87;;
15393;SDS011;7795;47.986;11.868;2023-05-29T10:24:56;6.63;;;3.60;;
15393;SDS011;7795;47.986;11.868;2023-05-29T10:27:22;4.10;;;3.53;;
15393;SDS011;7795;47.986;11.868;2023-05-29T10:29:49;5.27;;;3.87;;
15393;SDS011;7795;47.986;11.868;2023-05-29T10:32:20;5.63;;;3.53;;
15393;SDS011;7795;47.986;11.868;2023-05-29T10:34:55;5.60;;;3.70;;
15393;SDS011;7795;47.986;11.868;2023-05-29T10:37:29;4.93;;;3.60;;
15393;SDS011;7795;47.986;11.868;2023-05-29T10:40:04;5.20;;;3.80;;
15393;SDS011;7795;47.986;11.868;2023-05-29T10:42:41;4.43;;;3.50;;
15393;SDS011;7795;47.986;11.868;2023-05-29T10:45:11;5.40;;;3.40;;
15393;SDS011;7795;47.986;11.868;2023-05-29T10:51:04;5.57;;;3.70;;
15393;SDS011;7795;47.986;11.868;2023-05-29T10:53:31;4.18;;;3.30;;
15393;SDS011;7795;47.986;11.868;2023-05-29T10:55:57;6.97;;;3.60;;
15393;SDS011;7795;47.986;11.868;2023-05-29T10:58:26;5.87;;;4.10;;
15393;SDS011;7795;47.986;11.868;2023-05-29T11:00:53;6.68;;;3.92;;
15393;SDS011;7795;47.986;11.868;2023-05-29T11:03:22;5.40;;;3.77;;
15393;SDS011;7795;47.986;11.868;2023-05-29T11:05:58;5.43;;;3.83;;
15393;SDS011;7795;47.986;11.868;2023-05-29T11:08:33;4.00;;;3.30;;
15393;SDS011;7795;47.986;11.868;2023-05-29T11:11:01;5.07;;;3.03;;
15393;SDS011;7795;47.986;11.868;2023-05-29T11:13:31;4.50;;;3.65;;
15393;SDS011;7795;47.986;11.868;2023-05-29T11:16:13;5.28;;;3.50;;
15393;SDS011;7795;47.986;11.868;2023-05-29T11:18:44;4.65;;;3.22;;
15393;SDS011;7795;47.986;11.868;2023-05-29T11:21:27;5.40;;;3.20;;
15393;SDS011;7795;47.986;11.868;2023-05-29T11:24:00;4.20;;;3.47;;
15393;SDS011;7795;47.986;11.868;2023-05-29T11:26:31;5.70;;;3.70;;
15393;SDS011;7795;47.986;11.868;2023-05-29T11:28:58;5.65;;;3.60;;
15393;SDS011;7795;47.986;11.868;2023-05-29T11:31:24;6.95;;;4.13;;
15393;SDS011;7795;47.986;11.868;2023-05-29T11:33:53;5.15;;;3.67;;
15393;SDS011;7795;47.986;11.868;2023-05-29T11:36:23;4.63;;;3.60;;
15393;SDS011;7795;47.986;11.868;2023-05-29T11:38:51;4.55;;;3.35;;
15393;SDS011;7795;47.986;11.868;2023-05-29T11:41:18;5.85;;;3.75;;
15393;SDS011;7795;47.986;11.868;2023-05-29T11:43:44;4.25;;;3.30;;
15393;SDS011;7795;47.986;11.868;2023-05-29T11:46:20;4.97;;;3.58;;
15393;SDS011;7795;47.986;11.868;2023-05-29T11:48:46;7.00;;;3.20;;
15393;SDS011;7795;47.986;11.868;2023-05-29T11:51:12;4.70;;;3.50;;
15393;SDS011;7795;47.986;11.868;2023-05-29T11:53:39;4.47;;;3.30;;
15393;SDS011;7795;47.986;11.868;2023-05-29T11:56:06;4.43;;;3.27;;
15393;SDS011;7795;47.986;11.868;2023-05-29T11:58:35;5.72;;;3.80;;
15393;SDS011;7795;47.986;11.868;2023-05-29T12:01:01;4.43;;;3.33;;
15393;SDS011;7795;47.986;11.868;2023-05-29T12:03:27;4.43;;;3.45;;
15393;SDS011;7795;47.986;11.868;2023-05-29T12:05:53;4.38;;;3.35;;
15393;SDS011;7795;47.986;11.868;2023-05-29T12:08:20;5.13;;;3.67;;
15393;SDS011;7795;47.986;11.868;2023-05-29T12:10:47;4.45;;;3.13;;
15393;SDS011;7795;47.986;11.868;2023-05-29T12:13:13;4.20;;;3.22;;
15393;SDS011;7795;47.986;11.868;2023-05-29T12:15:43;3.63;;;3.03;;
15393;SDS011;7795;47.986;11.868;2023-05-29T12:18:09;3.60;;;3.15;;
15393;SDS011;7795;47.986;11.868;2023-05-29T12:20:36;4.55;;;3.30;;
15393;SDS011;7795;47.986;11.868;2023-05-29T12:23:02;4.15;;;2.90;;
15393;SDS011;7795;47.986;11.868;2023-05-29T12:25:28;4.05;;;3.10;;
15393;SDS011;7795;47.986;11.868;2023-05-29T12:27:55;4.60;;;3.03;;
15393;SDS011;7795;47.986;11.868;2023-05-29T12:30:22;4.40;;;3.03;;
15393;SDS011;7795;47.986;11.868;2023-05-29T12:32:50;5.60;;;3.42;;
15393;SDS011;7795;47.986;11.868;2023-05-29T12:35:17;5.47;;;2.90;;
15393;SDS011;7795;47.986;11.868;2023-05-29T12:37:44;3.45;;;3.08;;
15393;SDS011;7795;47.986;11.868;2023-05-29T12:40:15;3.80;;;2.95;;
15393;SDS011;7795;47.986;11.868;2023-05-29T12:42:45;3.65;;;2.58;;
15393;SDS011;7795;47.986;11.868;2023-05-29T12:45:12;4.38;;;3.10;;
15393;SDS011;7795;47.986;11.868;2023-05-29T12:47:44;3.85;;;3.42;;
15393;SDS011;7795;47.986;11.868;2023-05-29T12:50:22;4.90;;;3.30;;
15393;SDS011;7795;47.986;11.868;2023-05-29T12:52:53;4.63;;;3.20;;
15393;SDS011;7795;47.986;11.868;2023-05-29T12:55:22;5.18;;;3.10;;
15393;SDS011;7795;47.986;11.868;2023-05-29T12:57:48;4.40;;;3.00;;
15393;SDS011;7795;47.986;11.868;2023-05-29T13:00:14;6.00;;;3.13;;
15393;SDS011;7795;47.986;11.868;2023-05-29T13:02:40;4.75;;;3.38;;
15393;SDS011;7795;47.986;11.868;2023-05-29T13:05:06;4.70;;;2.78;;
15393;SDS011;7795;47.986;11.868;2023-05-29T13:07:34;4.28;;;3.30;;
15393;SDS011;7795;47.986;11.868;2023-05-29T13:09:59;4.95;;;3.28;;
15393;SDS011;7795;47.986;11.868;2023-05-29T13:12:27;4.10;;;2.65;;
15393;SDS011;7795;47.986;11.868;2023-05-29T13:14:52;4.95;;;3.20;;
15393;SDS011;7795;47.986;11.868;2023-05-29T13:17:20;4.97;;;2.72;;
15393;SDS011;7795;47.986;11.868;2023-05-29T13:19:46;3.92;;;2.80;;
15393;SDS011;7795;47.986;11.868;2023-05-29T13:22:12;3.08;;;2.53;;
15393;SDS011;7795;47.986;11.868;2023-05-29T13:24:39;3.83;;;2.58;;
15393;SDS011;7795;47.986;11.868;2023-05-29T13:27:05;4.10;;;3.00;;
15393;SDS011;7795;47.986;11.868;2023-05-29T13:29:31;3.63;;;2.83;;
15393;SDS011;7795;47.986;11.868;2023-05-29T13:31:57;5.38;;;3.08;;
15393;SDS011;7795;47.986;11.868;2023-05-29T13:34:23;3.47;;;2.53;;
15393;SDS011;7795;47.986;11.868;2023-05-29T13:36:53;4.03;;;2.50;;
15393;SDS011;7795;47.986;11.868;2023-05-29T13:39:19;4.30;;;2.88;;
15393;SDS011;7795;47.986;11.868;2023-05-29T13:41:46;3.33;;;2.70;;
15393;SDS011;7795;47.986;11.868;2023-05-29T13:44:12;5.50;;;2.80;;
15393;SDS011;7795;47.986;11.868;2023-05-29T13:46:38;3.65;;;2.72;;
15393;SDS011;7795;47.986;11.868;2023-05-29T13:49:03;6.63;;;2.50;;
15393;SDS011;7795;47.986;11.868;2023-05-29T13:51:30;3.85;;;2.50;;
15393;SDS011;7795;47.986;11.868;2023-05-29T13:53:55;3.08;;;2.13;;
15393;SDS011;7795;47.986;11.868;2023-05-29T13:56:21;3.63;;;2.40;;
15393;SDS011;7795;47.986;11.868;2023-05-29T13:58:48;3.17;;;2.45;;
15393;SDS011;7795;47.986;11.868;2023-05-29T14:01:14;3.15;;;2.50;;
15393;SDS011;7795;47.986;11.868;2023-05-29T14:03:43;3.35;;;2.33;;
15393;SDS011;7795;47.986;11.868;2023-05-29T14:06:09;5.13;;;2.92;;
15393;SDS011;7795;47.986;11.868;2023-05-29T14:08:35;3.60;;;2.60;;
15393;SDS011;7795;47.986;11.868;2023-05-29T14:11:01;3.15;;;2.50;;
15393;SDS011;7795;47.986;11.868;2023-05-29T14:13:27;4.72;;;2.42;;
15393;SDS011;7795;47.986;11.868;2023-05-29T14:15:54;2.83;;;2.50;;
15393;SDS011;7795;47.986;11.868;2023-05-29T14:18:22;3.17;;;2.83;;
15393;SDS011;7795;47.986;11.868;2023-05-29T14:20:47;3.50;;;2.70;;
15393;SDS011;7795;47.986;11.868;2023-05-29T14:23:13;3.63;;;2.80;;
15393;SDS011;7795;47.986;11.868;2023-05-29T14:25:40;3.47;;;2.80;;
15393;SDS011;7795;47.986;11.868;2023-05-29T14:28:06;3.40;;;2.97;;
15393;SDS011;7795;47.986;11.868;2023-05-29T14:30:32;4.68;;;3.05;;
15393;SDS011;7795;47.986;11.868;2023-05-29T14:32:59;5.30;;;2.58;;
15393;SDS011;7795;47.986;11.868;2023-05-29T14:35:25;3.67;;;2.28;;
15393;SDS011;7795;47.986;11.868;2023-05-29T14:37:51;4.40;;;3.00;;
15393;SDS011;7795;47.986;11.868;2023-05-29T14:40:17;4.90;;;2.90;;
15393;SDS011;7795;47.986;11.868;2023-05-29T14:42:43;3.78;;;2.72;;
15393;SDS011;7795;47.986;11.868;2023-05-29T14:45:08;3.28;;;2.63;;
15393;SDS011;7795;47.986;11.868;2023-05-29T14:47:34;4.07;;;2.80;;
15393;SDS011;7795;47.986;11.868;2023-05-29T14:50:01;4.68;;;2.83;;
15393;SDS011;7795;47.986;11.868;2023-05-29T14:52:27;3.53;;;2.70;;